Time;durP1;ratioP1;P1;durP2;ratioP2;P2;SDS_P1;SDS_P2;PMS_P1;PMS_P2;Temp;Humidity;BMP_temperature;BMP_pressure;BME280_temperature;BME280_humidity;BME280_pressure;Samples;Min_cycle;Max_cycle;Signal;HPM_P1;HPM_P2
2021/01/13 00:02:08;;;;;;;1.60;1.50;;;12.50;99.90;;;;;;4807927;29;20228;-92
2021/01/13 00:04:39;;;;;;;1.27;1.17;;;12.50;99.90;;;;;;4813694;29;20242;-95
2021/01/13 00:07:14;;;;;;;1.20;1.10;;;12.50;99.90;;;;;;4816065;29;20223;-95
2021/01/13 00:09:46;;;;;;;0.83;0.73;;;12.40;99.90;;;;;;4806448;29;20218;-94
2021/01/13 00:12:17;;;;;;;1.57;0.90;;;12.40;99.90;;;;;;4809460;29;20213;-94
2021/01/13 00:14:51;;;;;;;2.27;0.70;;;12.40;99.90;;;;;;4909340;23;20251;-95
2021/01/13 00:17:22;;;;;;;1.33;0.60;;;12.40;99.90;;;;;;4855391;29;20302;-94
2021/01/13 00:19:54;;;;;;;0.73;0.70;;;12.30;99.90;;;;;;4852380;29;20272;-93
2021/01/13 00:22:25;;;;;;;1.27;0.63;;;12.40;99.90;;;;;;4857318;29;20697;-93
2021/01/13 00:25:05;;;;;;;0.77;0.60;;;12.30;99.90;;;;;;4860751;29;20351;-93
2021/01/13 00:28:01;;;;;;;0.83;0.53;;;12.30;99.90;;;;;;4862473;29;20207;-93
2021/01/13 00:36:38;;;;;;;0.97;0.63;;;12.20;99.90;;;;;;4868372;29;20203;-96
2021/01/13 00:39:31;;;;;;;2.23;0.80;;;12.20;99.90;;;;;;4858635;29;20219;-96
2021/01/13 00:42:10;;;;;;;1.10;0.80;;;12.20;99.90;;;;;;4866376;29;20231;-96
2021/01/13 00:45:07;;;;;;;3.27;0.70;;;12.20;99.90;;;;;;4863794;29;20398;-96
2021/01/13 00:48:10;;;;;;;1.30;0.83;;;12.10;99.90;;;;;;4861360;29;20203;-96
2021/01/13 00:50:54;;;;;;;1.57;1.43;;;12.10;99.90;;;;;;4870888;29;20215;-96
2021/01/13 00:56:33;;;;;;;2.77;1.73;;;12.10;99.90;;;;;;4863709;29;20208;-96
2021/01/13 01:02:22;;;;;;;3.87;2.00;;;12.00;99.90;;;;;;4859398;29;20338;-95
2021/01/13 01:05:14;;;;;;;3.70;2.20;;;11.90;99.90;;;;;;4871975;29;20289;-94
2021/01/13 01:07:58;;;;;;;2.40;1.97;;;11.90;99.90;;;;;;4859288;29;20741;-91
2021/01/13 01:10:31;;;;;;;3.53;2.30;;;11.90;99.90;;;;;;4862423;29;20272;-90
2021/01/13 01:13:04;;;;;;;3.83;2.27;;;11.90;99.90;;;;;;4860652;29;20294;-90
2021/01/13 01:15:37;;;;;;;4.27;2.57;;;11.90;99.90;;;;;;4862695;29;20211;-96
2021/01/13 01:18:08;;;;;;;2.57;2.10;;;11.90;99.90;;;;;;4862803;29;20203;-95
2021/01/13 01:20:41;;;;;;;8.03;2.30;;;11.80;99.90;;;;;;4852229;29;20255;-92
2021/01/13 01:23:11;;;;;;;2.43;1.70;;;11.80;99.90;;;;;;4870497;29;20652;-92
2021/01/13 01:25:42;;;;;;;3.63;2.00;;;11.80;99.90;;;;;;4881717;29;20264;-92
2021/01/13 01:28:13;;;;;;;1.83;1.30;;;11.80;99.90;;;;;;4865804;29;20196;-91
2021/01/13 01:30:43;;;;;;;3.70;1.83;;;11.80;99.90;;;;;;4864805;29;20264;-91
2021/01/13 01:33:15;;;;;;;6.80;1.70;;;11.80;99.90;;;;;;4865308;29;20208;-92
2021/01/13 01:35:48;;;;;;;6.83;1.13;;;11.80;99.90;;;;;;4864360;29;20206;-90
2021/01/13 01:38:19;;;;;;;4.87;1.00;;;11.80;99.90;;;;;;4853873;29;20287;-94
2021/01/13 01:40:51;;;;;;;3.53;1.10;;;11.80;99.90;;;;;;4854302;29;20239;-94
2021/01/13 01:43:22;;;;;;;1.97;1.13;;;11.80;99.90;;;;;;4854015;29;20239;-94
2021/01/13 01:45:53;;;;;;;4.70;1.47;;;11.80;99.90;;;;;;4854561;29;20216;-94
2021/01/13 01:48:29;;;;;;;2.53;1.40;;;11.80;99.90;;;;;;4850255;29;20219;-94
2021/01/13 01:51:03;;;;;;;5.43;2.53;;;11.80;99.90;;;;;;4851190;29;20199;-94
2021/01/13 01:54:13;;;;;;;5.40;2.47;;;11.70;99.90;;;;;;4863372;29;20236;-92
2021/01/13 01:56:45;;;;;;;5.23;2.47;;;11.70;99.90;;;;;;4867511;29;20275;-94
2021/01/13 01:59:17;;;;;;;5.93;3.30;;;11.70;99.90;;;;;;4869508;29;20243;-96
2021/01/13 02:01:56;;;;;;;3.77;2.43;;;11.60;99.90;;;;;;4854535;29;20241;-93
2021/01/13 02:04:32;;;;;;;2.83;1.60;;;11.60;99.90;;;;;;4852786;29;20310;-93
2021/01/13 02:07:38;;;;;;;2.67;1.73;;;11.60;99.90;;;;;;4856511;29;20234;-92
2021/01/13 02:10:09;;;;;;;3.97;2.13;;;11.60;99.90;;;;;;4852154;29;20593;-91
2021/01/13 02:12:52;;;;;;;8.00;2.10;;;11.60;99.90;;;;;;4853503;29;20298;-90
2021/01/13 02:15:23;;;;;;;5.57;1.37;;;11.60;99.90;;;;;;4867401;29;20214;-90
2021/01/13 02:17:59;;;;;;;1.50;1.17;;;11.60;99.90;;;;;;4866667;29;20241;-89
2021/01/13 02:20:32;;;;;;;2.53;1.00;;;11.70;99.90;;;;;;4859639;29;20242;-92
2021/01/13 02:23:08;;;;;;;1.00;0.90;;;11.70;99.90;;;;;;4859224;29;20216;-90
2021/01/13 02:26:39;;;;;;;1.63;0.90;;;11.60;99.90;;;;;;4856868;29;20657;-94
2021/01/13 02:29:36;;;;;;;2.10;1.20;;;11.60;99.90;;;;;;4849227;29;20219;-93
2021/01/13 02:32:17;;;;;;;4.93;1.00;;;11.50;99.90;;;;;;4847730;29;20208;-95
2021/01/13 02:35:06;;;;;;;0.87;0.87;;;11.50;99.90;;;;;;4847952;29;20264;-95
2021/01/13 02:37:44;;;;;;;2.27;1.07;;;11.50;99.90;;;;;;4850779;29;20208;-96
2021/01/13 02:40:20;;;;;;;2.30;1.07;;;11.50;99.90;;;;;;4852233;29;20211;-95
2021/01/13 02:43:04;;;;;;;1.20;1.10;;;11.60;99.90;;;;;;4851132;29;20215;-94
2021/01/13 02:45:40;;;;;;;2.00;0.90;;;11.60;99.90;;;;;;4859884;29;20218;-94
2021/01/13 02:48:17;;;;;;;5.57;1.40;;;11.60;99.90;;;;;;4867757;29;20214;-95
2021/01/13 02:50:55;;;;;;;1.10;1.00;;;11.60;99.90;;;;;;4857165;29;20279;-93
2021/01/13 02:53:58;;;;;;;1.97;1.07;;;11.60;99.90;;;;;;4850774;29;20215;-95
2021/01/13 02:56:53;;;;;;;6.57;1.53;;;11.60;99.90;;;;;;4860957;29;20244;-95
2021/01/13 02:59:28;;;;;;;4.90;1.40;;;11.60;99.90;;;;;;4852121;29;20311;-94
2021/01/13 03:02:01;;;;;;;3.47;1.30;;;11.60;99.90;;;;;;4849008;29;20258;-95
2021/01/13 03:04:32;;;;;;;6.27;1.10;;;11.60;99.90;;;;;;4849423;29;20215;-94
2021/01/13 03:07:11;;;;;;;2.90;1.03;;;11.60;99.90;;;;;;4860632;29;20216;-94
2021/01/13 03:09:45;;;;;;;2.00;1.30;;;11.60;99.90;;;;;;4858241;29;20214;-94
2021/01/13 03:12:23;;;;;;;2.03;1.00;;;11.60;99.90;;;;;;4859421;29;20343;-95
2021/01/13 03:14:55;;;;;;;1.70;1.20;;;11.60;99.90;;;;;;4860403;29;20223;-93
2021/01/13 03:17:46;;;;;;;2.43;1.00;;;11.60;99.90;;;;;;4873842;29;20211;-94
2021/01/13 03:20:27;;;;;;;1.40;1.10;;;11.60;99.90;;;;;;4868426;29;20187;-95
2021/01/13 03:23:07;;;;;;;2.80;1.40;;;11.60;99.90;;;;;;4881227;29;20282;-94
2021/01/13 03:25:53;;;;;;;2.30;1.77;;;11.60;99.90;;;;;;4876496;29;20200;-93
2021/01/13 03:28:27;;;;;;;2.40;2.00;;;11.60;99.90;;;;;;5079128;23;20261;-93
2021/01/13 03:30:59;;;;;;;1.50;1.37;;;11.60;99.90;;;;;;4881690;29;20205;-95
2021/01/13 03:33:53;;;;;;;1.87;1.40;;;11.60;99.90;;;;;;4879491;29;20236;-93
2021/01/13 03:36:36;;;;;;;1.57;1.30;;;11.60;99.90;;;;;;4881085;29;20237;-94
2021/01/13 03:39:10;;;;;;;1.20;0.93;;;11.60;99.90;;;;;;4880624;29;20206;-95
2021/01/13 03:42:09;;;;;;;1.90;0.90;;;11.70;99.90;;;;;;4874617;29;20295;-94
2021/01/13 03:44:41;;;;;;;1.00;0.80;;;11.70;99.90;;;;;;4865091;29;20329;-94
2021/01/13 03:47:48;;;;;;;1.33;0.50;;;11.70;99.90;;;;;;4882625;29;20218;-92
2021/01/13 03:50:25;;;;;;;0.70;0.60;;;11.70;99.90;;;;;;4867164;29;20215;-94
2021/01/13 03:53:00;;;;;;;1.07;0.60;;;11.70;99.90;;;;;;4873617;29;20194;-94
2021/01/13 03:55:35;;;;;;;1.40;0.80;;;11.70;99.90;;;;;;4870607;29;20255;-93
2021/01/13 03:58:30;;;;;;;3.13;0.90;;;11.80;99.90;;;;;;4866389;29;20644;-93
2021/01/13 04:01:33;;;;;;;1.23;0.80;;;11.90;99.90;;;;;;4862714;29;20239;-94
2021/01/13 04:04:24;;;;;;;1.50;0.60;;;12.00;99.90;;;;;;4868550;29;20652;-92
2021/01/13 04:07:02;;;;;;;0.70;0.70;;;12.10;99.90;;;;;;4882747;29;20240;-92
2021/01/13 04:09:34;;;;;;;0.60;0.40;;;12.20;99.90;;;;;;4869591;29;20206;-93
2021/01/13 04:12:13;;;;;;;1.90;0.40;;;12.40;99.90;;;;;;4871568;29;20226;-93
2021/01/13 04:14:56;;;;;;;1.03;0.30;;;12.40;99.90;;;;;;4872161;29;20211;-93
2021/01/13 04:17:28;;;;;;;1.27;0.50;;;12.50;99.90;;;;;;4877338;29;20195;-92
2021/01/13 04:20:00;;;;;;;0.97;0.40;;;12.50;99.90;;;;;;4885015;29;20183;-92
2021/01/13 04:22:34;;;;;;;0.50;0.40;;;12.50;99.90;;;;;;4881729;29;20252;-92
2021/01/13 04:25:11;;;;;;;0.40;0.40;;;12.50;99.90;;;;;;4881237;29;20377;-94
2021/01/13 04:27:45;;;;;;;0.80;0.30;;;12.60;99.90;;;;;;4891363;29;20214;-94
2021/01/13 04:30:17;;;;;;;0.70;0.30;;;12.60;99.90;;;;;;4885468;29;20207;-92
2021/01/13 04:32:48;;;;;;;0.40;0.40;;;12.70;99.90;;;;;;4883910;29;20218;-92
2021/01/13 04:35:20;;;;;;;0.73;0.40;;;12.80;99.90;;;;;;4870815;29;20215;-93
2021/01/13 04:37:56;;;;;;;0.20;0.20;;;12.80;99.90;;;;;;4869261;29;20594;-93
2021/01/13 04:40:35;;;;;;;0.43;0.40;;;12.80;99.90;;;;;;4876070;29;20211;-93
2021/01/13 04:43:08;;;;;;;0.30;0.30;;;12.80;99.90;;;;;;4869496;29;20207;-92
2021/01/13 04:45:43;;;;;;;0.50;0.30;;;12.70;99.90;;;;;;4871404;29;20650;-94
2021/01/13 04:48:18;;;;;;;0.97;0.40;;;12.80;99.90;;;;;;4870862;29;20899;-92
2021/01/13 04:51:04;;;;;;;0.50;0.40;;;12.80;99.90;;;;;;4884132;29;20217;-94
2021/01/13 04:56:26;;;;;;;0.83;0.40;;;12.80;99.90;;;;;;4880169;29;20207;-93
2021/01/13 04:59:34;;;;;;;0.30;0.30;;;12.70;99.90;;;;;;4866890;29;20589;-93
2021/01/13 05:02:29;;;;;;;0.87;0.57;;;12.80;99.90;;;;;;4873835;29;20231;-92
2021/01/13 05:05:28;;;;;;;2.87;0.40;;;12.80;99.90;;;;;;4879055;29;20208;-93
2021/01/13 05:08:28;;;;;;;0.60;0.50;;;12.80;99.90;;;;;;4868097;29;20207;-93
2021/01/13 05:11:23;;;;;;;0.60;0.30;;;12.90;99.90;;;;;;4871749;29;20302;-93
2021/01/13 05:14:09;;;;;;;1.10;0.30;;;12.90;99.90;;;;;;4874396;29;20267;-93
2021/01/13 05:17:13;;;;;;;2.17;0.50;;;12.90;99.90;;;;;;4869335;29;20255;-92
2021/01/13 05:20:24;;;;;;;1.03;0.40;;;13.00;99.90;;;;;;4863675;29;20232;-90
2021/01/13 05:22:57;;;;;;;1.30;0.40;;;13.00;99.90;;;;;;4871388;29;20236;-93
2021/01/13 05:25:53;;;;;;;0.97;0.53;;;13.00;99.90;;;;;;4868294;29;20209;-91
2021/01/13 05:28:29;;;;;;;1.00;0.50;;;13.00;99.90;;;;;;4870380;29;20267;-91
2021/01/13 05:31:12;;;;;;;0.40;0.30;;;13.00;99.90;;;;;;4866016;29;20212;-91
2021/01/13 05:33:44;;;;;;;0.40;0.40;;;13.00;99.90;;;;;;4869741;29;20273;-93
2021/01/13 05:36:22;;;;;;;0.27;0.20;;;13.00;99.90;;;;;;4873666;29;20211;-93
2021/01/13 05:39:13;;;;;;;0.50;0.47;;;12.90;99.90;;;;;;4863556;29;20199;-93
2021/01/13 05:41:48;;;;;;;0.57;0.40;;;13.00;99.90;;;;;;4869544;29;20235;-93
2021/01/13 05:44:28;;;;;;;0.93;0.40;;;13.00;99.90;;;;;;4869119;29;20274;-94
2021/01/13 05:47:10;;;;;;;0.30;0.30;;;13.10;99.90;;;;;;4864879;29;20206;-93
2021/01/13 05:49:44;;;;;;;0.40;0.30;;;13.10;99.90;;;;;;4862980;29;20249;-92
2021/01/13 05:52:20;;;;;;;0.60;0.57;;;13.10;99.90;;;;;;4865794;29;20203;-94
2021/01/13 05:55:02;;;;;;;0.50;0.50;;;13.10;99.90;;;;;;4867283;29;20239;-93
2021/01/13 05:57:35;;;;;;;1.00;0.30;;;13.10;99.90;;;;;;4866703;29;20215;-95
2021/01/13 06:00:12;;;;;;;0.47;0.40;;;13.10;99.90;;;;;;4862909;29;20206;-94
2021/01/13 06:02:59;;;;;;;0.63;0.20;;;13.10;99.90;;;;;;4870552;29;20238;-93
2021/01/13 06:05:31;;;;;;;0.57;0.50;;;13.10;99.90;;;;;;4877915;29;20211;-92
2021/01/13 06:08:04;;;;;;;0.60;0.53;;;13.10;99.90;;;;;;4879805;29;20199;-92
2021/01/13 06:10:49;;;;;;;1.30;0.73;;;13.00;99.90;;;;;;4874722;29;20211;-92
2021/01/13 06:13:31;;;;;;;0.47;0.30;;;13.00;99.90;;;;;;4867320;29;20196;-92
2021/01/13 06:16:11;;;;;;;1.10;0.50;;;13.00;99.90;;;;;;4874000;29;20219;-91
2021/01/13 06:18:45;;;;;;;0.50;0.33;;;13.10;99.90;;;;;;4866984;29;20243;-91
2021/01/13 06:21:17;;;;;;;0.63;0.50;;;13.20;99.90;;;;;;4865381;29;20273;-91
2021/01/13 06:23:51;;;;;;;0.70;0.40;;;13.20;99.90;;;;;;4866483;29;20203;-91
2021/01/13 06:26:22;;;;;;;0.50;0.50;;;13.10;99.90;;;;;;4880153;29;20224;-92
2021/01/13 06:33:10;;;;;;;0.90;0.60;;;13.10;99.90;;;;;;4865417;29;20292;-92
2021/01/13 06:36:16;;;;;;;0.33;0.30;;;13.10;99.90;;;;;;4863100;29;20207;-92
2021/01/13 06:38:56;;;;;;;0.50;0.30;;;13.10;99.90;;;;;;4868528;29;20546;-93
2021/01/13 06:41:29;;;;;;;0.70;0.30;;;13.00;99.90;;;;;;4857605;29;20239;-93
2021/01/13 06:44:01;;;;;;;0.60;0.40;;;13.00;99.90;;;;;;4867632;29;20319;-93
2021/01/13 06:46:39;;;;;;;0.80;0.30;;;13.00;99.90;;;;;;4862158;29;20270;-93
2021/01/13 06:49:17;;;;;;;1.07;0.50;;;13.00;99.90;;;;;;4856431;29;20231;-93
2021/01/13 06:51:49;;;;;;;0.80;0.33;;;13.00;99.90;;;;;;4862106;29;20206;-93
2021/01/13 06:54:20;;;;;;;1.23;0.40;;;12.90;99.90;;;;;;4862074;29;20214;-93
2021/01/13 06:56:52;;;;;;;1.30;0.40;;;13.00;99.90;;;;;;4859914;29;20212;-93
2021/01/13 06:59:25;;;;;;;2.33;0.30;;;13.00;99.90;;;;;;4860500;29;20260;-93
2021/01/13 07:01:56;;;;;;;0.20;0.20;;;13.00;99.90;;;;;;4855513;29;20235;-93
2021/01/13 07:04:45;;;;;;;1.60;0.40;;;13.00;99.90;;;;;;4865351;29;20310;-92
2021/01/13 07:07:16;;;;;;;0.37;0.27;;;13.00;99.90;;;;;;4865282;29;20207;-92
2021/01/13 07:09:49;;;;;;;0.20;0.20;;;13.00;99.90;;;;;;4856792;29;20207;-92
2021/01/13 07:12:21;;;;;;;0.37;0.30;;;13.10;99.90;;;;;;4858625;29;20203;-91
2021/01/13 07:14:53;;;;;;;1.93;0.40;;;13.10;99.90;;;;;;4862648;29;21978;-92
2021/01/13 07:17:25;;;;;;;1.40;0.37;;;13.00;99.90;;;;;;4864360;29;20207;-92
2021/01/13 07:20:00;;;;;;;0.30;0.20;;;13.10;99.90;;;;;;4864312;29;20275;-92
2021/01/13 07:22:31;;;;;;;1.80;0.30;;;13.10;99.90;;;;;;4865045;29;20252;-91
2021/01/13 07:25:02;;;;;;;0.20;0.10;;;13.10;99.90;;;;;;4863605;29;20299;-91
2021/01/13 07:27:33;;;;;;;0.63;0.30;;;13.10;99.90;;;;;;4863802;29;20660;-92
2021/01/13 07:30:04;;;;;;;0.20;0.20;;;13.10;99.90;;;;;;4857358;29;20261;-91
2021/01/13 07:32:43;;;;;;;0.20;0.20;;;13.10;99.90;;;;;;4858592;29;20275;-91
2021/01/13 07:35:20;;;;;;;0.43;0.30;;;13.00;99.90;;;;;;4858124;29;20262;-92
2021/01/13 07:38:00;;;;;;;0.93;0.40;;;13.10;99.90;;;;;;4854080;29;20729;-90
2021/01/13 07:40:36;;;;;;;1.37;0.30;;;13.00;99.90;;;;;;4855980;29;20207;-92
2021/01/13 07:43:09;;;;;;;0.50;0.27;;;13.00;99.90;;;;;;4857773;29;20278;-91
2021/01/13 07:45:42;;;;;;;1.10;0.30;;;13.00;99.90;;;;;;4864039;29;20217;-93
2021/01/13 07:49:12;;;;;;;0.83;0.30;;;13.00;99.90;;;;;;4862223;29;20203;-92
2021/01/13 07:51:50;;;;;;;0.60;0.30;;;13.00;99.90;;;;;;4859083;29;20226;-92
2021/01/13 07:54:29;;;;;;;4.57;0.50;;;13.00;99.90;;;;;;4863322;29;20203;-93
2021/01/13 07:57:02;;;;;;;3.23;0.40;;;13.00;99.90;;;;;;4868656;29;20231;-91
2021/01/13 07:59:35;;;;;;;0.50;0.23;;;13.00;99.90;;;;;;4861058;29;20703;-93
2021/01/13 08:03:00;;;;;;;0.20;0.20;;;13.00;99.90;;;;;;4868086;29;20231;-94
2021/01/13 08:06:04;;;;;;;2.30;0.30;;;13.00;99.90;;;;;;4863566;29;20231;-91
2021/01/13 08:09:26;;;;;;;2.00;0.37;;;13.00;99.90;;;;;;4864530;29;20246;-92
2021/01/13 08:12:30;;;;;;;2.50;0.40;;;12.90;99.90;;;;;;4840584;29;20208;-92
2021/01/13 08:15:48;;;;;;;0.77;0.30;;;12.60;99.90;;;;;;4850857;29;20211;-92
2021/01/13 08:18:55;;;;;;;3.50;0.20;;;12.30;99.90;;;;;;4877952;29;20219;-91
2021/01/13 08:21:54;;;;;;;2.57;0.30;;;11.80;99.90;;;;;;4887231;29;20233;-93
2021/01/13 08:24:33;;;;;;;3.07;0.60;;;11.60;99.90;;;;;;4881422;29;20219;-92
2021/01/13 08:27:04;;;;;;;2.93;0.20;;;11.50;99.90;;;;;;4878868;29;20207;-92
2021/01/13 08:29:39;;;;;;;2.10;0.40;;;11.30;99.90;;;;;;4879155;29;20256;-93
2021/01/13 08:32:13;;;;;;;1.87;0.50;;;11.20;99.90;;;;;;4877339;29;20207;-91
2021/01/13 08:34:49;;;;;;;3.83;0.30;;;11.10;99.90;;;;;;4880186;29;20238;-94
2021/01/13 08:37:20;;;;;;;1.93;0.40;;;11.10;99.90;;;;;;4871479;29;20208;-95
2021/01/13 08:39:56;;;;;;;2.03;0.50;;;11.00;99.90;;;;;;4877122;29;20203;-94
2021/01/13 08:42:30;;;;;;;0.50;0.30;;;11.00;99.90;;;;;;4877803;29;20213;-95
2021/01/13 08:45:20;;;;;;;1.80;0.30;;;11.10;99.90;;;;;;4878838;29;20257;-93
2021/01/13 08:48:09;;;;;;;1.83;0.17;;;11.00;99.90;;;;;;4879172;29;20211;-94
2021/01/13 08:51:14;;;;;;;0.20;0.20;;;11.10;99.90;;;;;;4873957;29;20210;-93
2021/01/13 08:53:46;;;;;;;1.80;0.63;;;11.00;99.90;;;;;;4872885;29;20218;-93
2021/01/13 08:59:18;;;;;;;1.20;0.30;;;10.80;99.90;;;;;;4894150;29;20234;-95
2021/01/13 09:01:50;;;;;;;1.77;0.43;;;10.60;99.90;;;;;;4875846;29;20246;-94
2021/01/13 09:04:26;;;;;;;5.17;0.97;;;10.50;99.90;;;;;;4883074;29;20191;-95
2021/01/13 09:07:16;;;;;;;6.63;0.80;;;10.40;99.90;;;;;;4870084;29;20220;-93
2021/01/13 09:09:58;;;;;;;3.17;0.60;;;10.40;99.90;;;;;;4882350;29;20214;-93
2021/01/13 09:12:35;;;;;;;5.97;0.63;;;10.20;99.90;;;;;;4868739;29;20211;-94
2021/01/13 09:15:27;;;;;;;3.90;0.80;;;10.10;99.90;;;;;;4876694;29;20207;-94
2021/01/13 09:18:00;;;;;;;3.03;0.80;;;10.00;99.90;;;;;;4876178;29;20215;-92
2021/01/13 09:20:32;;;;;;;3.30;0.70;;;9.90;99.90;;;;;;4882197;29;20234;-94
2021/01/13 09:23:31;;;;;;;4.73;1.03;;;9.90;99.90;;;;;;4882458;29;20235;-94
2021/01/13 09:26:17;;;;;;;2.23;0.60;;;9.80;99.90;;;;;;4865760;29;20222;-91
2021/01/13 09:29:00;;;;;;;5.67;0.80;;;9.70;99.90;;;;;;4874010;29;20213;-92
2021/01/13 09:31:31;;;;;;;2.70;0.67;;;9.60;99.90;;;;;;4877097;29;20213;-92
2021/01/13 09:34:03;;;;;;;2.93;0.60;;;9.50;99.90;;;;;;4856029;29;20211;-94
2021/01/13 09:36:57;;;;;;;4.43;0.60;;;9.40;99.90;;;;;;4877032;29;20210;-95
2021/01/13 09:39:35;;;;;;;3.97;0.90;;;9.30;99.90;;;;;;4874022;29;20214;-94
2021/01/13 09:42:07;;;;;;;2.27;0.47;;;9.20;99.90;;;;;;4880136;29;20248;-94
2021/01/13 09:44:41;;;;;;;3.10;0.50;;;9.10;99.90;;;;;;4873247;29;20207;-94
2021/01/13 09:47:25;;;;;;;4.07;0.83;;;9.10;99.90;;;;;;4857757;29;20210;-93
2021/01/13 09:49:57;;;;;;;2.97;0.80;;;9.00;99.90;;;;;;4873267;29;20238;-94
2021/01/13 09:52:38;;;;;;;4.20;0.93;;;8.90;99.90;;;;;;4874949;29;20207;-96
2021/01/13 09:55:10;;;;;;;3.37;0.77;;;8.80;99.90;;;;;;4870702;29;20211;-96
2021/01/13 09:57:42;;;;;;;1.47;0.63;;;8.70;99.90;;;;;;4879251;29;20218;-96
2021/01/13 10:00:20;;;;;;;3.37;0.60;;;8.70;99.90;;;;;;4881264;29;20194;-96
2021/01/13 10:02:50;;;;;;;2.40;0.40;;;8.70;99.90;;;;;;4879228;29;20226;-96
2021/01/13 10:05:22;;;;;;;6.87;0.67;;;8.60;99.90;;;;;;4884245;29;20192;-96
2021/01/13 10:07:55;;;;;;;4.67;0.67;;;8.50;99.90;;;;;;4882899;29;20202;-95
2021/01/13 10:10:26;;;;;;;1.90;0.43;;;8.50;99.90;;;;;;4884497;29;20333;-94
2021/01/13 10:15:33;;;;;;;1.73;0.70;;;8.40;99.90;;;;;;5087978;23;20283;-96
2021/01/13 10:18:05;;;;;;;2.20;0.40;;;8.40;99.90;;;;;;4856076;29;20244;-96
2021/01/13 10:20:37;;;;;;;5.93;0.80;;;8.40;99.90;;;;;;4858476;29;20219;-96
2021/01/13 10:23:09;;;;;;;1.80;0.70;;;8.30;99.90;;;;;;4874390;29;20857;-96
2021/01/13 10:25:43;;;;;;;3.43;0.40;;;8.30;99.90;;;;;;4862908;29;20234;-96
2021/01/13 10:28:15;;;;;;;1.17;0.50;;;8.20;99.90;;;;;;4862163;29;20237;-96
2021/01/13 10:30:48;;;;;;;2.30;0.60;;;8.20;99.90;;;;;;4858331;29;20214;-96
2021/01/13 10:33:36;;;;;;;1.10;0.40;;;8.20;99.90;;;;;;4856267;29;20235;-94
2021/01/13 10:36:10;;;;;;;4.27;0.67;;;8.10;99.90;;;;;;4853289;29;20690;-96
2021/01/13 10:38:44;;;;;;;2.93;0.50;;;8.10;99.90;;;;;;4869342;29;20214;-95
2021/01/13 10:41:15;;;;;;;2.03;0.40;;;8.10;99.90;;;;;;4869494;29;20222;-95
2021/01/13 10:43:49;;;;;;;2.90;0.73;;;8.10;99.90;;;;;;4870148;29;20252;-96
2021/01/13 10:46:27;;;;;;;5.33;0.40;;;8.00;99.90;;;;;;4863079;29;20209;-96
2021/01/13 10:49:03;;;;;;;3.07;0.60;;;8.00;99.90;;;;;;4857079;29;20227;-96
2021/01/13 10:51:40;;;;;;;3.07;0.67;;;8.00;99.90;;;;;;4853442;29;20230;-96
2021/01/13 10:54:11;;;;;;;3.07;0.47;;;8.00;99.90;;;;;;4853992;29;20229;-96
2021/01/13 10:56:43;;;;;;;1.30;0.47;;;7.90;99.90;;;;;;4853557;29;20216;-96
2021/01/13 10:59:17;;;;;;;1.00;0.23;;;7.90;99.90;;;;;;4867909;29;20211;-96
2021/01/13 11:01:53;;;;;;;1.63;0.63;;;7.90;99.90;;;;;;4857834;29;20287;-96
2021/01/13 11:04:33;;;;;;;1.63;0.50;;;7.90;99.90;;;;;;4855315;29;20203;-96
2021/01/13 11:07:15;;;;;;;2.70;0.50;;;7.80;99.90;;;;;;4851944;29;20203;-95
2021/01/13 11:09:49;;;;;;;1.73;0.40;;;7.80;99.90;;;;;;4860923;29;20247;-95
2021/01/13 11:12:21;;;;;;;2.77;0.40;;;7.70;99.90;;;;;;4851891;29;20245;-95
2021/01/13 11:14:53;;;;;;;1.87;0.60;;;7.60;99.90;;;;;;4852986;29;20231;-94
2021/01/13 11:17:27;;;;;;;2.53;0.50;;;7.60;99.90;;;;;;4853859;29;20271;-95
2021/01/13 11:20:00;;;;;;;1.60;0.50;;;7.60;99.90;;;;;;4858220;29;20208;-94
2021/01/13 11:22:44;;;;;;;5.53;0.50;;;7.60;99.90;;;;;;4851718;29;20254;-94
2021/01/13 11:25:34;;;;;;;3.47;0.97;;;7.60;99.90;;;;;;4854806;29;20207;-94
2021/01/13 11:28:07;;;;;;;5.20;0.87;;;7.60;99.90;;;;;;4855239;29;20217;-96
2021/01/13 11:30:39;;;;;;;6.17;0.73;;;7.50;99.90;;;;;;4857366;29;20237;-94
2021/01/13 11:33:13;;;;;;;4.10;1.00;;;7.50;99.90;;;;;;4856630;29;20274;-93
2021/01/13 11:35:49;;;;;;;4.77;0.70;;;7.50;99.90;;;;;;4859291;29;20210;-95
2021/01/13 11:38:52;;;;;;;3.80;1.00;;;7.40;99.90;;;;;;4857928;29;20207;-95
2021/01/13 11:42:03;;;;;;;4.40;1.03;;;7.40;99.90;;;;;;4856045;29;20216;-95
2021/01/13 11:44:42;;;;;;;4.53;1.10;;;7.40;99.90;;;;;;4856773;29;20212;-95
2021/01/13 11:47:26;;;;;;;4.30;0.90;;;7.30;99.90;;;;;;4857894;29;20294;-95
2021/01/13 11:49:59;;;;;;;6.87;1.13;;;7.30;99.90;;;;;;4856929;29;20327;-96
2021/01/13 11:52:34;;;;;;;6.00;1.20;;;7.40;99.90;;;;;;4853212;29;20260;-94
2021/01/13 11:55:05;;;;;;;4.47;0.97;;;7.40;99.90;;;;;;4850860;29;20203;-94
2021/01/13 11:57:36;;;;;;;8.87;0.90;;;7.30;99.90;;;;;;4854949;29;20559;-96
2021/01/13 12:00:21;;;;;;;3.47;0.80;;;7.30;99.90;;;;;;4852876;29;20224;-95
2021/01/13 12:02:54;;;;;;;5.93;1.60;;;7.20;99.90;;;;;;4852189;29;20257;-94
2021/01/13 12:05:31;;;;;;;7.50;1.20;;;7.20;99.90;;;;;;4852055;29;20299;-94
2021/01/13 12:08:04;;;;;;;6.43;1.10;;;7.30;99.90;;;;;;4856839;29;20211;-95
2021/01/13 12:10:36;;;;;;;7.90;1.20;;;7.20;99.90;;;;;;4861822;29;20241;-96
2021/01/13 12:13:18;;;;;;;7.80;1.50;;;7.10;99.90;;;;;;4853029;29;20255;-96
2021/01/13 12:15:59;;;;;;;5.10;1.30;;;7.10;99.90;;;;;;4857032;29;20219;-95
2021/01/13 12:18:31;;;;;;;7.67;1.67;;;7.10;99.90;;;;;;4859795;29;20218;-95
2021/01/13 12:21:29;;;;;;;4.87;1.27;;;7.20;99.90;;;;;;4855572;29;20208;-95
2021/01/13 12:24:14;;;;;;;4.67;0.87;;;7.30;99.90;;;;;;4851069;29;20319;-94
2021/01/13 12:26:45;;;;;;;7.47;1.30;;;7.40;99.90;;;;;;4855051;29;20212;-93
2021/01/13 12:29:21;;;;;;;5.73;1.33;;;7.40;99.90;;;;;;4849160;29;20214;-94
2021/01/13 12:31:53;;;;;;;3.07;0.90;;;7.40;99.90;;;;;;4857044;29;20223;-94
2021/01/13 12:34:24;;;;;;;5.00;0.90;;;7.40;99.90;;;;;;4856444;29;20212;-92
2021/01/13 12:37:07;;;;;;;3.70;0.70;;;7.50;99.90;;;;;;4856272;29;20213;-96
2021/01/13 12:39:42;;;;;;;2.70;0.80;;;7.50;99.90;;;;;;4858576;29;20203;-95
2021/01/13 12:42:19;;;;;;;2.93;1.00;;;7.50;99.90;;;;;;4858077;29;20254;-94
2021/01/13 12:44:50;;;;;;;5.23;1.20;;;7.40;99.90;;;;;;4861071;29;20299;-95
2021/01/13 12:47:27;;;;;;;3.80;1.00;;;7.40;99.90;;;;;;4856706;29;20223;-96
2021/01/13 12:49:58;;;;;;;7.37;1.37;;;7.40;99.90;;;;;;4856600;29;20231;-96
2021/01/13 12:52:31;;;;;;;5.07;1.20;;;7.40;99.90;;;;;;4872883;29;20218;-96
2021/01/13 12:55:01;;;;;;;3.53;0.87;;;7.30;99.90;;;;;;4866081;29;20211;-94
2021/01/13 12:57:32;;;;;;;7.57;1.00;;;7.20;99.90;;;;;;4865081;29;20632;-94
2021/01/13 13:00:03;;;;;;;6.30;1.20;;;7.10;99.90;;;;;;4854656;29;20238;-95
2021/01/13 13:02:34;;;;;;;11.27;1.57;;;7.00;99.90;;;;;;4857815;29;20235;-94
2021/01/13 13:05:05;;;;;;;5.77;1.40;;;7.00;99.90;;;;;;4854657;29;20246;-94
2021/01/13 13:07:38;;;;;;;10.93;1.60;;;6.90;99.90;;;;;;4856365;29;20218;-95
2021/01/13 13:10:10;;;;;;;4.50;1.17;;;6.80;99.90;;;;;;4858050;29;20215;-96
2021/01/13 13:12:42;;;;;;;10.53;1.90;;;6.70;99.90;;;;;;4855393;29;20227;-96
2021/01/13 13:15:13;;;;;;;9.20;1.40;;;6.70;99.90;;;;;;4851085;29;20222;-95
2021/01/13 13:17:44;;;;;;;6.57;1.97;;;6.60;99.90;;;;;;4862070;29;20221;-95
2021/01/13 13:20:16;;;;;;;6.40;1.60;;;6.70;99.90;;;;;;4857740;29;20197;-96
2021/01/13 13:22:50;;;;;;;5.87;1.50;;;6.60;99.90;;;;;;4857486;29;20260;-95
2021/01/13 13:25:21;;;;;;;6.70;1.37;;;6.50;99.90;;;;;;4848704;29;20218;-95
2021/01/13 13:27:53;;;;;;;11.67;1.90;;;6.50;99.90;;;;;;4851115;29;20268;-96
2021/01/13 13:30:23;;;;;;;7.00;1.40;;;6.40;99.90;;;;;;4856064;29;20573;-94
2021/01/13 13:32:55;;;;;;;7.67;1.77;;;6.40;99.90;;;;;;4860059;29;20255;-94
2021/01/13 13:35:29;;;;;;;9.33;1.80;;;6.40;99.90;;;;;;4857705;29;20251;-95
2021/01/13 13:38:01;;;;;;;8.10;1.40;;;6.30;99.90;;;;;;4863374;29;20221;-96
2021/01/13 13:40:32;;;;;;;10.23;1.80;;;6.30;99.90;;;;;;4856198;29;20279;-96
2021/01/13 13:43:05;;;;;;;8.13;1.47;;;6.30;99.90;;;;;;4852839;29;20228;-96
2021/01/13 13:45:38;;;;;;;8.00;1.43;;;6.20;99.90;;;;;;4847019;29;20237;-96
2021/01/13 13:48:12;;;;;;;7.57;1.30;;;6.10;99.90;;;;;;4857593;29;20271;-95
2021/01/13 13:50:47;;;;;;;9.17;1.63;;;6.00;99.90;;;;;;4858374;29;20204;-95
2021/01/13 13:53:19;;;;;;;8.30;1.83;;;5.90;99.90;;;;;;4857712;29;20242;-95
2021/01/13 13:55:51;;;;;;;9.97;1.60;;;5.90;99.90;;;;;;4860001;29;20203;-94
2021/01/13 13:58:30;;;;;;;7.97;1.90;;;5.80;99.90;;;;;;4852456;29;20210;-94
2021/01/13 14:01:02;;;;;;;9.00;1.37;;;5.90;99.90;;;;;;4856920;29;20218;-95
2021/01/13 14:03:33;;;;;;;8.03;1.47;;;5.70;99.90;;;;;;4853935;29;20263;-95
2021/01/13 14:06:06;;;;;;;11.07;1.90;;;5.70;99.90;;;;;;4853851;29;20243;-94
2021/01/13 14:08:40;;;;;;;4.73;1.57;;;5.60;99.90;;;;;;4853543;29;20221;-96
2021/01/13 14:11:14;;;;;;;13.13;1.90;;;5.70;99.90;;;;;;4855965;29;20675;-96
2021/01/13 14:13:44;;;;;;;13.40;1.80;;;5.60;99.90;;;;;;4854546;29;20315;-95
2021/01/13 14:16:28;;;;;;;8.63;1.40;;;5.60;99.90;;;;;;4848919;29;20214;-96